createdAt,value
2018-02-11T11:44:57.453Z,93.10
2018-02-11T11:48:13.620Z,93.13
2018-02-11T11:51:25.292Z,93.15
2018-02-11T11:54:32.345Z,92.97
2018-02-11T11:57:49.830Z,93.06
2018-02-11T12:01:17.295Z,92.96
2018-02-11T12:04:37.095Z,92.89
2018-02-11T12:08:11.023Z,92.81
2018-02-11T12:11:36.938Z,92.86
2018-02-11T12:15:00.041Z,92.90
2018-02-11T12:18:16.271Z,92.66
2018-02-11T12:21:29.630Z,92.75
2018-02-11T12:24:51.073Z,92.75
2018-02-11T12:28:17.225Z,92.82
2018-02-11T12:31:39.030Z,92.64
2018-02-11T12:34:53.035Z,92.64
2018-02-11T12:38:12.105Z,92.69
2018-02-11T12:41:31.481Z,92.53
2018-02-11T12:44:46.023Z,92.50
2018-02-11T12:48:02.487Z,92.52
2018-02-11T12:51:38.396Z,92.52
2018-02-11T12:54:57.240Z,92.55
2018-02-11T12:58:18.207Z,92.58
2018-02-11T13:05:18.299Z,92.31
2018-02-11T13:08:51.384Z,92.43
2018-02-11T13:12:16.751Z,92.49
2018-02-11T13:15:51.075Z,92.37
2018-02-11T13:19:08.891Z,92.36
2018-02-11T13:22:33.268Z,92.43
2018-02-11T13:29:12.742Z,92.39
2018-02-11T13:32:34.823Z,92.40
2018-02-11T13:35:53.231Z,92.32
2018-02-11T13:39:03.771Z,92.33
2018-02-11T13:42:14.257Z,92.26
2018-02-11T13:45:24.833Z,92.26
2018-02-11T13:48:36.717Z,92.29
2018-02-11T13:51:55.988Z,92.30
2018-02-11T13:55:22.385Z,92.24
2018-02-11T13:58:41.566Z,92.20
2018-02-11T14:02:03.376Z,92.27
2018-02-11T14:05:25.420Z,92.21
2018-02-11T14:08:39.453Z,92.21
2018-02-11T14:11:49.225Z,92.14
2018-02-11T14:14:59.093Z,92.09
2018-02-11T14:18:05.437Z,92.08
2018-02-11T14:21:27.489Z,92.08
2018-02-11T14:24:33.876Z,92.16
2018-02-11T14:27:45.374Z,92.12
2018-02-11T14:30:53.060Z,91.97
2018-02-11T14:34:04.334Z,92.11
2018-02-11T14:37:14.793Z,92.04
2018-02-11T14:40:25.993Z,92.16
2018-02-11T14:43:37.131Z,92.07
2018-02-11T14:46:45.034Z,92.04
2018-02-11T14:49:52.870Z,92.04
2018-02-11T14:53:00.557Z,92.14
2018-02-11T14:56:08.152Z,92.06
2018-02-11T14:59:21.106Z,92.06
2018-02-11T15:02:29.724Z,92.17
2018-02-11T15:05:39.239Z,92.17
2018-02-11T15:08:53.320Z,92.06
2018-02-11T15:12:03.817Z,92.08
2018-02-11T15:15:27.368Z,92.07
2018-02-11T15:18:57.094Z,92.10
2018-02-11T15:22:10.182Z,92.08
2018-02-11T15:25:18.502Z,92.01
2018-02-11T15:28:32.883Z,91.94
2018-02-11T15:31:41.447Z,92.00
2018-02-11T15:34:49.299Z,92.02
2018-02-11T15:37:59.053Z,92.10
2018-02-11T15:41:09.803Z,92.09
2018-02-11T15:44:17.553Z,92.09
2018-02-11T15:47:32.872Z,92.15
2018-02-11T15:54:19.857Z,92.19
2018-02-11T15:57:39.757Z,92.18
2018-02-11T16:01:21.914Z,92.25
2018-02-11T16:04:42.193Z,92.08
2018-02-11T16:08:01.471Z,92.29
2018-02-11T16:11:28.560Z,92.22
2018-02-11T16:14:49.302Z,92.18
2018-02-11T16:18:12.600Z,92.22
2018-02-11T16:21:32.383Z,92.10
2018-02-11T16:24:41.692Z,92.05
2018-02-11T16:27:52.703Z,92.11
2018-02-11T16:31:32.898Z,92.24
2018-02-11T16:34:56.903Z,92.22
2018-02-11T16:38:17.928Z,92.20
2018-02-11T16:41:32.372Z,92.19
2018-02-11T16:44:54.556Z,92.22
2018-02-11T16:48:13.704Z,92.13
2018-02-11T16:51:37.167Z,92.17
2018-02-11T16:55:02.548Z,92.20
2018-02-11T16:58:18.333Z,92.36
2018-02-11T17:01:35.650Z,92.38
2018-02-11T17:04:46.266Z,92.33
2018-02-11T17:08:01.358Z,92.37
2018-02-11T17:11:10.973Z,92.31
2018-02-11T17:14:17.929Z,92.27
2018-02-11T17:17:26.033Z,92.44
2018-02-11T17:20:38.628Z,92.35
2018-02-11T17:23:51.186Z,92.32
2018-02-11T17:27:01.924Z,92.35
2018-02-11T17:30:14.335Z,92.29
2018-02-11T17:33:32.558Z,92.24
2018-02-11T17:36:41.325Z,92.33
2018-02-11T17:39:52.356Z,92.30
2018-02-11T17:43:12.440Z,92.17
2018-02-11T17:46:28.562Z,92.25
2018-02-11T17:49:49.000Z,92.21
2018-02-11T17:53:10.522Z,92.20
2018-02-11T17:56:27.685Z,92.18
2018-02-11T17:59:38.299Z,92.26
2018-02-11T18:03:06.689Z,92.17
2018-02-11T18:06:20.587Z,92.18
2018-02-11T18:09:31.263Z,92.23
2018-02-11T18:12:40.853Z,92.23
2018-02-11T18:15:55.860Z,92.26
2018-02-11T18:19:07.525Z,92.18
2018-02-11T18:22:18.337Z,92.18
2018-02-11T18:25:31.247Z,92.23
2018-02-11T18:28:46.926Z,92.24
2018-02-11T18:32:00.097Z,92.24
2018-02-11T18:35:08.969Z,92.19
2018-02-11T18:38:18.246Z,92.16
2018-02-11T18:41:26.929Z,92.19
2018-02-11T18:44:39.136Z,92.23
2018-02-11T18:47:54.486Z,92.25
2018-02-11T18:51:04.354Z,92.19
2018-02-11T18:54:16.842Z,92.04
2018-02-11T18:57:27.539Z,92.24
2018-02-11T19:00:37.646Z,92.17
2018-02-11T19:03:49.713Z,92.25
2018-02-11T19:06:59.114Z,92.26
2018-02-11T19:10:09.420Z,92.23
2018-02-11T19:13:18.461Z,92.25
2018-02-11T19:16:29.764Z,92.25
2018-02-11T19:19:40.868Z,92.22
2018-02-11T19:22:59.653Z,92.23
2018-02-11T19:26:17.050Z,92.19
2018-02-11T19:29:27.774Z,92.33
2018-02-11T19:32:39.020Z,92.17
2018-02-11T19:35:47.003Z,92.19
2018-02-11T19:38:56.309Z,92.22
2018-02-11T19:42:10.369Z,92.25
2018-02-11T19:45:19.164Z,92.18
2018-02-11T19:48:31.532Z,92.21
2018-02-11T19:51:49.942Z,92.26
2018-02-11T19:55:16.308Z,92.28
2018-02-11T19:58:42.149Z,92.23
2018-02-11T20:02:21.213Z,92.28
2018-02-11T20:05:41.668Z,92.26
2018-02-11T20:09:08.986Z,92.27
2018-02-11T20:12:43.178Z,92.21
2018-02-11T20:16:02.282Z,92.32
2018-02-11T20:19:28.980Z,92.25
2018-02-11T20:22:56.194Z,92.18
2018-02-11T20:26:24.349Z,92.17
2018-02-11T20:29:42.926Z,92.23
2018-02-11T20:33:02.828Z,92.29
2018-02-11T20:36:10.255Z,92.31
2018-02-11T20:39:15.801Z,92.34
2018-02-11T20:42:21.366Z,92.28
2018-02-11T20:45:26.929Z,92.27
2018-02-11T20:48:32.698Z,92.24
2018-02-11T20:51:38.242Z,92.27
2018-02-11T20:54:43.773Z,92.27
2018-02-11T20:57:50.181Z,92.20
2018-02-11T21:00:57.696Z,92.17
2018-02-11T21:04:17.230Z,92.33
2018-02-11T21:07:57.751Z,92.36
2018-02-11T21:11:09.439Z,92.25
2018-02-11T21:14:19.540Z,92.30
2018-02-11T21:17:25.687Z,92.33
2018-02-11T21:20:31.375Z,92.29
2018-02-11T21:23:36.915Z,92.22
2018-02-11T21:26:42.265Z,92.26
2018-02-11T21:29:47.829Z,92.22
2018-02-11T21:32:53.329Z,92.18
2018-02-11T21:35:58.857Z,92.21
2018-02-11T21:39:03.926Z,92.25
2018-02-11T21:42:09.478Z,92.22
2018-02-11T21:45:15.013Z,92.17
2018-02-11T21:48:20.557Z,92.17
2018-02-11T21:51:26.048Z,92.08
2018-02-11T21:54:31.576Z,92.15
2018-02-11T21:57:37.065Z,92.16
2018-02-11T22:00:46.087Z,92.22
2018-02-11T22:03:51.636Z,92.23
2018-02-11T22:06:57.168Z,92.13
2018-02-11T22:10:02.718Z,92.15
2018-02-11T22:13:08.266Z,92.21
2018-02-11T22:16:13.801Z,92.19
2018-02-11T22:19:19.293Z,92.12
2018-02-11T22:22:24.822Z,92.09
2018-02-11T22:25:30.410Z,92.04
2018-02-11T22:28:35.948Z,92.13
2018-02-11T22:31:41.475Z,92.00
2018-02-11T22:34:47.012Z,92.03
2018-02-11T22:37:52.597Z,92.06
2018-02-11T22:40:58.090Z,92.03
2018-02-11T22:44:03.652Z,92.05
2018-02-11T22:47:09.153Z,92.04
2018-02-11T22:50:14.693Z,92.08
2018-02-11T22:53:20.176Z,92.07
2018-02-11T22:56:25.714Z,92.14
2018-02-11T22:59:31.202Z,92.15
2018-02-11T23:02:36.745Z,92.10
2018-02-11T23:05:42.238Z,92.03
2018-02-11T23:08:47.772Z,92.09
2018-02-11T23:11:53.273Z,92.11
2018-02-11T23:14:58.805Z,92.11
2018-02-11T23:18:04.304Z,92.11
2018-02-11T23:21:09.841Z,92.13
2018-02-11T23:24:15.349Z,92.09
2018-02-11T23:27:20.887Z,92.11
2018-02-11T23:30:26.395Z,92.01
2018-02-11T23:33:31.945Z,92.07
2018-02-11T23:36:37.437Z,92.13
2018-02-11T23:39:42.990Z,92.09
2018-02-11T23:42:48.482Z,92.17
2018-02-11T23:45:54.034Z,92.17
2018-02-11T23:48:59.537Z,92.00
2018-02-11T23:52:05.080Z,92.14
2018-02-11T23:55:10.573Z,92.24
2018-02-11T23:58:16.112Z,92.06
